sensor_id;sensor_type;location;lat;lon;timestamp;P1;durP1;ratioP1;P2;durP2;ratioP2
32365;SDS011;18837;46.832;16.838;2023-04-03T00:00:07;2.63;;;1.90;;
32365;SDS011;18837;46.832;16.838;2023-04-03T00:05:50;1.97;;;1.73;;
32365;SDS011;18837;46.832;16.838;2023-04-03T00:08:16;2.83;;;2.27;;
32365;SDS011;18837;46.832;16.838;2023-04-03T00:10:42;2.33;;;1.90;;
32365;SDS011;18837;46.832;16.838;2023-04-03T00:13:08;2.20;;;1.57;;
32365;SDS011;18837;46.832;16.838;2023-04-03T00:15:34;1.83;;;1.40;;
32365;SDS011;18837;46.832;16.838;2023-04-03T00:18:01;2.43;;;1.87;;
32365;SDS011;18837;46.832;16.838;2023-04-03T00:20:36;2.30;;;2.10;;
32365;SDS011;18837;46.832;16.838;2023-04-03T00:23:02;3.20;;;1.80;;
32365;SDS011;18837;46.832;16.838;2023-04-03T00:25:29;3.10;;;1.70;;
32365;SDS011;18837;46.832;16.838;2023-04-03T00:27:55;1.90;;;1.77;;
32365;SDS011;18837;46.832;16.838;2023-04-03T00:30:21;1.77;;;1.67;;
32365;SDS011;18837;46.832;16.838;2023-04-03T00:32:48;1.53;;;1.40;;
32365;SDS011;18837;46.832;16.838;2023-04-03T00:40:54;1.77;;;1.63;;
32365;SDS011;18837;46.832;16.838;2023-04-03T00:43:24;2.13;;;1.50;;
32365;SDS011;18837;46.832;16.838;2023-04-03T00:45:52;2.80;;;1.90;;
32365;SDS011;18837;46.832;16.838;2023-04-03T00:48:24;2.07;;;1.87;;
32365;SDS011;18837;46.832;16.838;2023-04-03T00:50:54;1.67;;;1.57;;
32365;SDS011;18837;46.832;16.838;2023-04-03T00:53:28;2.37;;;1.70;;
32365;SDS011;18837;46.832;16.838;2023-04-03T00:56:02;2.17;;;1.60;;
32365;SDS011;18837;46.832;16.838;2023-04-03T00:58:37;1.90;;;1.67;;
32365;SDS011;18837;46.832;16.838;2023-04-03T01:01:08;1.87;;;1.67;;
32365;SDS011;18837;46.832;16.838;2023-04-03T01:03:38;3.03;;;2.23;;
32365;SDS011;18837;46.832;16.838;2023-04-03T01:06:04;1.70;;;1.57;;
32365;SDS011;18837;46.832;16.838;2023-04-03T01:14:38;2.20;;;1.70;;
32365;SDS011;18837;46.832;16.838;2023-04-03T01:17:20;2.03;;;1.70;;
32365;SDS011;18837;46.832;16.838;2023-04-03T01:20:03;2.50;;;1.60;;
32365;SDS011;18837;46.832;16.838;2023-04-03T01:22:46;2.50;;;1.73;;
32365;SDS011;18837;46.832;16.838;2023-04-03T01:25:17;3.13;;;1.80;;
32365;SDS011;18837;46.832;16.838;2023-04-03T01:27:58;1.60;;;1.50;;
32365;SDS011;18837;46.832;16.838;2023-04-03T01:30:26;2.40;;;1.60;;
32365;SDS011;18837;46.832;16.838;2023-04-03T01:32:56;1.90;;;1.70;;
32365;SDS011;18837;46.832;16.838;2023-04-03T01:35:22;1.87;;;1.60;;
32365;SDS011;18837;46.832;16.838;2023-04-03T01:37:48;2.23;;;1.70;;
32365;SDS011;18837;46.832;16.838;2023-04-03T01:40:14;1.90;;;1.57;;
32365;SDS011;18837;46.832;16.838;2023-04-03T01:48:48;2.10;;;1.90;;
32365;SDS011;18837;46.832;16.838;2023-04-03T01:51:14;1.60;;;1.50;;
32365;SDS011;18837;46.832;16.838;2023-04-03T01:53:40;2.73;;;1.77;;
32365;SDS011;18837;46.832;16.838;2023-04-03T01:56:06;2.03;;;1.83;;
32365;SDS011;18837;46.832;16.838;2023-04-03T01:58:32;1.53;;;1.43;;
32365;SDS011;18837;46.832;16.838;2023-04-03T02:00:58;1.40;;;1.30;;
32365;SDS011;18837;46.832;16.838;2023-04-03T02:03:33;2.00;;;1.57;;
32365;SDS011;18837;46.832;16.838;2023-04-03T02:05:59;2.93;;;2.03;;
32365;SDS011;18837;46.832;16.838;2023-04-03T02:08:25;2.40;;;1.93;;
32365;SDS011;18837;46.832;16.838;2023-04-03T02:10:51;2.07;;;1.57;;
32365;SDS011;18837;46.832;16.838;2023-04-03T02:13:17;1.97;;;1.60;;
32365;SDS011;18837;46.832;16.838;2023-04-03T02:15:43;1.97;;;1.60;;
32365;SDS011;18837;46.832;16.838;2023-04-03T02:24:18;3.17;;;1.80;;
32365;SDS011;18837;46.832;16.838;2023-04-03T02:26:44;2.93;;;1.87;;
32365;SDS011;18837;46.832;16.838;2023-04-03T02:29:10;2.03;;;1.83;;
32365;SDS011;18837;46.832;16.838;2023-04-03T02:31:35;2.50;;;1.93;;
32365;SDS011;18837;46.832;16.838;2023-04-03T02:34:01;2.40;;;1.63;;
32365;SDS011;18837;46.832;16.838;2023-04-03T02:39:12;3.00;;;1.67;;
32365;SDS011;18837;46.832;16.838;2023-04-03T02:41:38;2.40;;;1.80;;
32365;SDS011;18837;46.832;16.838;2023-04-03T02:44:08;2.33;;;1.87;;
32365;SDS011;18837;46.832;16.838;2023-04-03T02:46:35;2.33;;;1.97;;
32365;SDS011;18837;46.832;16.838;2023-04-03T02:49:01;2.20;;;2.00;;
32365;SDS011;18837;46.832;16.838;2023-04-03T02:51:42;2.63;;;1.97;;
32365;SDS011;18837;46.832;16.838;2023-04-03T02:57:50;1.70;;;1.60;;
32365;SDS011;18837;46.832;16.838;2023-04-03T03:00:16;2.57;;;1.80;;
32365;SDS011;18837;46.832;16.838;2023-04-03T03:02:42;2.23;;;1.87;;
32365;SDS011;18837;46.832;16.838;2023-04-03T03:05:08;2.03;;;1.83;;
32365;SDS011;18837;46.832;16.838;2023-04-03T03:07:34;2.50;;;2.17;;
32365;SDS011;18837;46.832;16.838;2023-04-03T03:12:44;1.93;;;1.73;;
32365;SDS011;18837;46.832;16.838;2023-04-03T03:15:11;2.33;;;2.00;;
32365;SDS011;18837;46.832;16.838;2023-04-03T03:17:37;2.13;;;1.93;;
32365;SDS011;18837;46.832;16.838;2023-04-03T03:20:04;2.13;;;1.63;;
32365;SDS011;18837;46.832;16.838;2023-04-03T03:22:31;3.40;;;2.03;;
32365;SDS011;18837;46.832;16.838;2023-04-03T03:24:57;4.70;;;1.80;;
32365;SDS011;18837;46.832;16.838;2023-04-03T03:32:58;3.03;;;2.23;;
32365;SDS011;18837;46.832;16.838;2023-04-03T03:35:24;2.33;;;1.80;;
32365;SDS011;18837;46.832;16.838;2023-04-03T03:37:50;1.83;;;1.53;;
32365;SDS011;18837;46.832;16.838;2023-04-03T03:40:16;2.00;;;1.67;;
32365;SDS011;18837;46.832;16.838;2023-04-03T03:42:42;2.90;;;1.80;;
32365;SDS011;18837;46.832;16.838;2023-04-03T03:45:23;1.90;;;1.73;;
32365;SDS011;18837;46.832;16.838;2023-04-03T03:47:49;2.80;;;1.90;;
32365;SDS011;18837;46.832;16.838;2023-04-03T03:50:15;2.33;;;1.87;;
32365;SDS011;18837;46.832;16.838;2023-04-03T03:52:41;2.10;;;1.90;;
32365;SDS011;18837;46.832;16.838;2023-04-03T03:55:07;2.10;;;1.90;;
32365;SDS011;18837;46.832;16.838;2023-04-03T03:57:32;2.63;;;1.70;;
32365;SDS011;18837;46.832;16.838;2023-04-03T04:08:17;2.00;;;1.80;;
32365;SDS011;18837;46.832;16.838;2023-04-03T04:10:43;2.03;;;1.83;;
32365;SDS011;18837;46.832;16.838;2023-04-03T04:13:08;2.30;;;1.73;;
32365;SDS011;18837;46.832;16.838;2023-04-03T04:15:34;2.27;;;1.73;;
32365;SDS011;18837;46.832;16.838;2023-04-03T04:18:00;2.20;;;1.70;;
32365;SDS011;18837;46.832;16.838;2023-04-03T04:20:41;2.23;;;2.03;;
32365;SDS011;18837;46.832;16.838;2023-04-03T04:23:06;2.20;;;2.00;;
32365;SDS011;18837;46.832;16.838;2023-04-03T04:25:32;2.20;;;1.90;;
32365;SDS011;18837;46.832;16.838;2023-04-03T04:27:58;2.90;;;1.67;;
32365;SDS011;18837;46.832;16.838;2023-04-03T04:30:24;1.90;;;1.70;;
32365;SDS011;18837;46.832;16.838;2023-04-03T04:32:49;2.43;;;1.67;;
32365;SDS011;18837;46.832;16.838;2023-04-03T04:41:21;4.03;;;2.17;;
32365;SDS011;18837;46.832;16.838;2023-04-03T04:43:51;3.80;;;2.10;;
32365;SDS011;18837;46.832;16.838;2023-04-03T04:46:17;2.80;;;2.10;;
32365;SDS011;18837;46.832;16.838;2023-04-03T04:48:43;2.70;;;1.50;;
32365;SDS011;18837;46.832;16.838;2023-04-03T04:51:10;2.33;;;1.80;;
32365;SDS011;18837;46.832;16.838;2023-04-03T04:53:48;2.10;;;1.90;;
32365;SDS011;18837;46.832;16.838;2023-04-03T04:56:15;4.07;;;1.83;;
32365;SDS011;18837;46.832;16.838;2023-04-03T04:58:41;2.37;;;2.10;;
32365;SDS011;18837;46.832;16.838;2023-04-03T05:01:07;2.97;;;2.07;;
32365;SDS011;18837;46.832;16.838;2023-04-03T05:03:34;2.20;;;1.70;;
32365;SDS011;18837;46.832;16.838;2023-04-03T05:06:01;2.43;;;1.73;;
32365;SDS011;18837;46.832;16.838;2023-04-03T05:08:27;2.50;;;1.90;;
32365;SDS011;18837;46.832;16.838;2023-04-03T05:14:14;2.90;;;2.17;;
32365;SDS011;18837;46.832;16.838;2023-04-03T05:16:40;2.87;;;1.90;;
32365;SDS011;18837;46.832;16.838;2023-04-03T05:19:06;3.20;;;2.20;;
32365;SDS011;18837;46.832;16.838;2023-04-03T05:21:32;4.30;;;2.27;;
32365;SDS011;18837;46.832;16.838;2023-04-03T05:23:58;2.30;;;2.10;;
32365;SDS011;18837;46.832;16.838;2023-04-03T05:26:27;2.77;;;2.20;;
32365;SDS011;18837;46.832;16.838;2023-04-03T05:28:59;3.37;;;1.90;;
32365;SDS011;18837;46.832;16.838;2023-04-03T05:31:46;3.30;;;2.20;;
32365;SDS011;18837;46.832;16.838;2023-04-03T05:34:14;2.70;;;2.03;;
32365;SDS011;18837;46.832;16.838;2023-04-03T05:36:40;2.60;;;2.40;;
32365;SDS011;18837;46.832;16.838;2023-04-03T05:39:06;3.20;;;2.23;;
32365;SDS011;18837;46.832;16.838;2023-04-03T05:41:32;2.33;;;1.93;;
32365;SDS011;18837;46.832;16.838;2023-04-03T05:50:17;3.60;;;2.57;;
32365;SDS011;18837;46.832;16.838;2023-04-03T05:52:44;4.13;;;2.30;;
32365;SDS011;18837;46.832;16.838;2023-04-03T05:55:12;2.70;;;2.40;;
32365;SDS011;18837;46.832;16.838;2023-04-03T05:57:38;2.63;;;2.33;;
32365;SDS011;18837;46.832;16.838;2023-04-03T06:00:05;3.13;;;2.60;;
32365;SDS011;18837;46.832;16.838;2023-04-03T06:02:40;3.17;;;2.60;;
32365;SDS011;18837;46.832;16.838;2023-04-03T06:05:08;2.60;;;2.27;;
32365;SDS011;18837;46.832;16.838;2023-04-03T06:07:34;4.07;;;2.80;;
32365;SDS011;18837;46.832;16.838;2023-04-03T06:10:00;3.77;;;2.63;;
32365;SDS011;18837;46.832;16.838;2023-04-03T06:12:26;5.13;;;2.77;;
32365;SDS011;18837;46.832;16.838;2023-04-03T06:14:54;3.50;;;2.80;;
32365;SDS011;18837;46.832;16.838;2023-04-03T06:17:20;3.63;;;3.00;;
32365;SDS011;18837;46.832;16.838;2023-04-03T06:22:59;5.93;;;2.80;;
32365;SDS011;18837;46.832;16.838;2023-04-03T06:25:25;3.47;;;2.57;;
32365;SDS011;18837;46.832;16.838;2023-04-03T06:27:51;4.83;;;2.80;;
32365;SDS011;18837;46.832;16.838;2023-04-03T06:30:17;3.73;;;2.77;;
32365;SDS011;18837;46.832;16.838;2023-04-03T06:32:43;3.03;;;2.40;;
32365;SDS011;18837;46.832;16.838;2023-04-03T06:35:09;3.67;;;2.93;;
32365;SDS011;18837;46.832;16.838;2023-04-03T08:08:42;6.17;;;2.13;;
32365;SDS011;18837;46.832;16.838;2023-04-03T08:11:08;4.20;;;2.33;;
32365;SDS011;18837;46.832;16.838;2023-04-03T08:13:35;5.07;;;2.37;;
32365;SDS011;18837;46.832;16.838;2023-04-03T08:16:08;3.00;;;2.17;;
32365;SDS011;18837;46.832;16.838;2023-04-03T08:18:35;3.67;;;2.30;;
32365;SDS011;18837;46.832;16.838;2023-04-03T08:23:51;3.17;;;2.20;;
32365;SDS011;18837;46.832;16.838;2023-04-03T08:26:18;2.27;;;1.90;;
32365;SDS011;18837;46.832;16.838;2023-04-03T08:28:46;2.23;;;1.80;;
32365;SDS011;18837;46.832;16.838;2023-04-03T08:31:14;3.60;;;2.00;;
32365;SDS011;18837;46.832;16.838;2023-04-03T08:33:42;2.00;;;1.67;;
32365;SDS011;18837;46.832;16.838;2023-04-03T08:45:48;3.10;;;2.10;;
32365;SDS011;18837;46.832;16.838;2023-04-03T08:48:20;3.27;;;1.90;;
32365;SDS011;18837;46.832;16.838;2023-04-03T08:50:48;2.47;;;2.03;;
32365;SDS011;18837;46.832;16.838;2023-04-03T08:53:19;3.83;;;2.07;;
32365;SDS011;18837;46.832;16.838;2023-04-03T08:56:07;2.40;;;1.90;;
32365;SDS011;18837;46.832;16.838;2023-04-03T09:04:08;3.03;;;2.27;;
32365;SDS011;18837;46.832;16.838;2023-04-03T09:06:39;2.90;;;2.40;;
32365;SDS011;18837;46.832;16.838;2023-04-03T09:23:20;4.70;;;2.53;;
32365;SDS011;18837;46.832;16.838;2023-04-03T09:25:47;2.80;;;2.23;;
32365;SDS011;18837;46.832;16.838;2023-04-03T09:28:16;5.03;;;2.47;;
32365;SDS011;18837;46.832;16.838;2023-04-03T09:30:41;3.33;;;2.60;;
32365;SDS011;18837;46.832;16.838;2023-04-03T09:33:07;2.63;;;2.23;;
32365;SDS011;18837;46.832;16.838;2023-04-03T09:35:35;2.47;;;2.27;;
32365;SDS011;18837;46.832;16.838;2023-04-03T09:43:22;2.70;;;2.50;;
32365;SDS011;18837;46.832;16.838;2023-04-03T09:49:31;6.37;;;2.60;;
32365;SDS011;18837;46.832;16.838;2023-04-03T09:51:57;2.60;;;2.23;;
32365;SDS011;18837;46.832;16.838;2023-04-03T09:54:33;2.80;;;2.37;;
32365;SDS011;18837;46.832;16.838;2023-04-03T09:57:10;2.67;;;2.30;;
32365;SDS011;18837;46.832;16.838;2023-04-03T09:59:57;2.73;;;2.10;;
32365;SDS011;18837;46.832;16.838;2023-04-03T10:02:40;2.23;;;2.03;;
32365;SDS011;18837;46.832;16.838;2023-04-03T10:08:07;3.43;;;2.57;;
32365;SDS011;18837;46.832;16.838;2023-04-03T10:10:42;4.07;;;2.43;;
32365;SDS011;18837;46.832;16.838;2023-04-03T10:13:20;3.47;;;2.47;;
32365;SDS011;18837;46.832;16.838;2023-04-03T10:18:27;6.83;;;2.20;;
32365;SDS011;18837;46.832;16.838;2023-04-03T10:35:45;3.70;;;2.47;;
32365;SDS011;18837;46.832;16.838;2023-04-03T11:02:23;3.20;;;2.23;;
32365;SDS011;18837;46.832;16.838;2023-04-03T11:04:52;4.90;;;2.27;;
32365;SDS011;18837;46.832;16.838;2023-04-03T11:07:26;2.97;;;1.90;;
32365;SDS011;18837;46.832;16.838;2023-04-03T11:10:03;3.37;;;2.07;;
32365;SDS011;18837;46.832;16.838;2023-04-03T11:12:52;5.13;;;2.20;;
32365;SDS011;18837;46.832;16.838;2023-04-03T11:15:48;4.10;;;2.20;;
32365;SDS011;18837;46.832;16.838;2023-04-03T11:18:26;5.03;;;2.37;;
32365;SDS011;18837;46.832;16.838;2023-04-03T11:21:28;5.70;;;2.47;;
32365;SDS011;18837;46.832;16.838;2023-04-03T11:23:56;5.90;;;2.57;;
32365;SDS011;18837;46.832;16.838;2023-04-03T11:26:26;4.53;;;2.30;;
32365;SDS011;18837;46.832;16.838;2023-04-03T11:35:27;7.17;;;2.13;;
32365;SDS011;18837;46.832;16.838;2023-04-03T11:37:54;3.63;;;2.20;;
32365;SDS011;18837;46.832;16.838;2023-04-03T11:40:28;3.00;;;2.17;;
32365;SDS011;18837;46.832;16.838;2023-04-03T11:53:45;2.20;;;1.83;;
32365;SDS011;18837;46.832;16.838;2023-04-03T11:59:29;3.70;;;2.23;;
32365;SDS011;18837;46.832;16.838;2023-04-03T12:19:00;2.67;;;1.93;;
32365;SDS011;18837;46.832;16.838;2023-04-03T12:24:25;3.03;;;1.97;;
32365;SDS011;18837;46.832;16.838;2023-04-03T12:47:02;4.10;;;1.83;;
32365;SDS011;18837;46.832;16.838;2023-04-03T12:49:54;2.43;;;1.80;;
32365;SDS011;18837;46.832;16.838;2023-04-03T12:52:32;4.50;;;1.83;;
32365;SDS011;18837;46.832;16.838;2023-04-03T12:55:14;2.17;;;1.90;;
32365;SDS011;18837;46.832;16.838;2023-04-03T12:57:43;2.50;;;2.03;;
32365;SDS011;18837;46.832;16.838;2023-04-03T13:03:03;6.30;;;2.30;;
32365;SDS011;18837;46.832;16.838;2023-04-03T13:05:31;6.33;;;2.30;;
32365;SDS011;18837;46.832;16.838;2023-04-03T13:08:00;3.13;;;2.03;;
32365;SDS011;18837;46.832;16.838;2023-04-03T13:10:28;5.53;;;2.40;;
32365;SDS011;18837;46.832;16.838;2023-04-03T13:13:08;2.97;;;2.00;;
32365;SDS011;18837;46.832;16.838;2023-04-03T13:18:56;3.33;;;2.17;;
32365;SDS011;18837;46.832;16.838;2023-04-03T13:21:24;3.20;;;2.47;;
32365;SDS011;18837;46.832;16.838;2023-04-03T13:24:00;5.20;;;2.27;;
32365;SDS011;18837;46.832;16.838;2023-04-03T13:26:28;2.63;;;1.93;;
32365;SDS011;18837;46.832;16.838;2023-04-03T13:29:02;2.60;;;2.17;;
32365;SDS011;18837;46.832;16.838;2023-04-03T13:31:54;4.93;;;2.20;;
32365;SDS011;18837;46.832;16.838;2023-04-03T13:34:22;2.93;;;1.80;;
32365;SDS011;18837;46.832;16.838;2023-04-03T13:41:48;2.23;;;1.90;;
32365;SDS011;18837;46.832;16.838;2023-04-03T13:53:19;2.57;;;2.07;;
32365;SDS011;18837;46.832;16.838;2023-04-03T13:58:54;4.20;;;2.20;;
32365;SDS011;18837;46.832;16.838;2023-04-03T14:01:21;3.87;;;2.13;;
32365;SDS011;18837;46.832;16.838;2023-04-03T14:03:59;7.47;;;2.60;;
32365;SDS011;18837;46.832;16.838;2023-04-03T14:09:14;2.37;;;2.03;;
32365;SDS011;18837;46.832;16.838;2023-04-03T14:11:41;2.87;;;2.23;;
32365;SDS011;18837;46.832;16.838;2023-04-03T14:14:18;2.50;;;2.00;;
32365;SDS011;18837;46.832;16.838;2023-04-03T14:16:49;3.13;;;2.27;;
32365;SDS011;18837;46.832;16.838;2023-04-03T14:19:19;5.70;;;2.23;;
32365;SDS011;18837;46.832;16.838;2023-04-03T14:21:54;3.70;;;2.57;;
32365;SDS011;18837;46.832;16.838;2023-04-03T14:27:41;3.10;;;2.27;;
32365;SDS011;18837;46.832;16.838;2023-04-03T14:30:11;2.33;;;1.97;;
32365;SDS011;18837;46.832;16.838;2023-04-03T14:32:44;3.73;;;2.60;;
32365;SDS011;18837;46.832;16.838;2023-04-03T14:38:01;9.30;;;2.40;;
32365;SDS011;18837;46.832;16.838;2023-04-03T14:40:27;7.00;;;2.37;;
32365;SDS011;18837;46.832;16.838;2023-04-03T14:42:58;2.27;;;1.77;;
32365;SDS011;18837;46.832;16.838;2023-04-03T14:45:24;2.77;;;2.40;;
32365;SDS011;18837;46.832;16.838;2023-04-03T14:47:52;4.83;;;2.30;;
32365;SDS011;18837;46.832;16.838;2023-04-03T14:50:21;3.93;;;2.37;;
32365;SDS011;18837;46.832;16.838;2023-04-03T14:52:49;2.90;;;2.07;;
32365;SDS011;18837;46.832;16.838;2023-04-03T14:55:17;2.60;;;2.10;;
32365;SDS011;18837;46.832;16.838;2023-04-03T15:03:49;4.13;;;2.57;;
32365;SDS011;18837;46.832;16.838;2023-04-03T15:06:14;2.33;;;2.07;;
32365;SDS011;18837;46.832;16.838;2023-04-03T15:08:41;4.30;;;2.07;;
32365;SDS011;18837;46.832;16.838;2023-04-03T15:11:09;3.00;;;2.00;;
32365;SDS011;18837;46.832;16.838;2023-04-03T15:13:36;3.03;;;2.00;;
32365;SDS011;18837;46.832;16.838;2023-04-03T15:18:54;4.40;;;1.93;;
32365;SDS011;18837;46.832;16.838;2023-04-03T15:21:20;3.37;;;2.17;;
32365;SDS011;18837;46.832;16.838;2023-04-03T15:23:46;4.13;;;2.10;;
32365;SDS011;18837;46.832;16.838;2023-04-03T15:26:12;2.20;;;1.93;;
32365;SDS011;18837;46.832;16.838;2023-04-03T15:28:41;2.57;;;1.87;;
32365;SDS011;18837;46.832;16.838;2023-04-03T15:31:10;2.97;;;2.00;;
32365;SDS011;18837;46.832;16.838;2023-04-03T15:36:38;3.60;;;2.33;;
32365;SDS011;18837;46.832;16.838;2023-04-03T15:39:03;3.43;;;2.17;;
32365;SDS011;18837;46.832;16.838;2023-04-03T15:41:29;3.60;;;2.20;;
32365;SDS011;18837;46.832;16.838;2023-04-03T15:43:55;3.07;;;2.00;;
32365;SDS011;18837;46.832;16.838;2023-04-03T15:46:21;2.93;;;2.40;;
32365;SDS011;18837;46.832;16.838;2023-04-03T15:48:47;2.70;;;1.93;;
32365;SDS011;18837;46.832;16.838;2023-04-03T15:51:29;3.00;;;2.43;;
32365;SDS011;18837;46.832;16.838;2023-04-03T15:53:55;2.87;;;2.37;;
32365;SDS011;18837;46.832;16.838;2023-04-03T15:56:21;3.97;;;2.50;;
32365;SDS011;18837;46.832;16.838;2023-04-03T15:58:47;2.67;;;2.20;;
32365;SDS011;18837;46.832;16.838;2023-04-03T16:01:13;1.97;;;1.77;;
32365;SDS011;18837;46.832;16.838;2023-04-03T16:03:39;3.17;;;2.37;;
32365;SDS011;18837;46.832;16.838;2023-04-03T16:12:17;7.03;;;2.37;;
32365;SDS011;18837;46.832;16.838;2023-04-03T16:14:43;4.63;;;2.10;;
32365;SDS011;18837;46.832;16.838;2023-04-03T16:17:09;3.50;;;2.10;;
32365;SDS011;18837;46.832;16.838;2023-04-03T16:19:35;2.53;;;2.20;;
32365;SDS011;18837;46.832;16.838;2023-04-03T16:22:01;6.50;;;2.47;;
32365;SDS011;18837;46.832;16.838;2023-04-03T16:24:36;5.50;;;2.27;;
32365;SDS011;18837;46.832;16.838;2023-04-03T16:27:03;3.03;;;2.30;;
32365;SDS011;18837;46.832;16.838;2023-04-03T16:29:29;2.60;;;2.20;;
32365;SDS011;18837;46.832;16.838;2023-04-03T16:31:56;3.70;;;2.20;;
32365;SDS011;18837;46.832;16.838;2023-04-03T16:34:22;3.77;;;2.30;;
32365;SDS011;18837;46.832;16.838;2023-04-03T16:36:48;2.97;;;2.30;;
32365;SDS011;18837;46.832;16.838;2023-04-03T16:39:14;2.77;;;2.10;;
32365;SDS011;18837;46.832;16.838;2023-04-03T16:47:59;2.30;;;1.93;;
32365;SDS011;18837;46.832;16.838;2023-04-03T16:50:25;5.17;;;1.97;;
32365;SDS011;18837;46.832;16.838;2023-04-03T16:52:51;10.33;;;2.53;;
32365;SDS011;18837;46.832;16.838;2023-04-03T16:55:17;6.07;;;2.17;;
32365;SDS011;18837;46.832;16.838;2023-04-03T16:57:43;4.57;;;2.60;;
32365;SDS011;18837;46.832;16.838;2023-04-03T17:00:21;4.17;;;2.17;;
32365;SDS011;18837;46.832;16.838;2023-04-03T17:02:46;4.00;;;2.40;;
32365;SDS011;18837;46.832;16.838;2023-04-03T17:05:12;4.30;;;2.13;;
32365;SDS011;18837;46.832;16.838;2023-04-03T17:07:38;3.20;;;2.20;;
32365;SDS011;18837;46.832;16.838;2023-04-03T17:10:05;4.00;;;2.47;;
32365;SDS011;18837;46.832;16.838;2023-04-03T17:12:31;4.77;;;2.23;;
32365;SDS011;18837;46.832;16.838;2023-04-03T17:15:15;4.03;;;2.17;;
32365;SDS011;18837;46.832;16.838;2023-04-03T17:20:55;8.07;;;2.00;;
32365;SDS011;18837;46.832;16.838;2023-04-03T17:23:21;3.63;;;2.37;;
32365;SDS011;18837;46.832;16.838;2023-04-03T17:25:49;3.60;;;1.80;;
32365;SDS011;18837;46.832;16.838;2023-04-03T17:28:15;2.53;;;1.90;;
32365;SDS011;18837;46.832;16.838;2023-04-03T17:30:41;3.83;;;2.07;;
32365;SDS011;18837;46.832;16.838;2023-04-03T17:33:07;3.73;;;1.90;;
32365;SDS011;18837;46.832;16.838;2023-04-03T17:35:48;2.03;;;1.80;;
32365;SDS011;18837;46.832;16.838;2023-04-03T17:38:14;2.70;;;1.80;;
32365;SDS011;18837;46.832;16.838;2023-04-03T17:40:40;2.73;;;1.67;;
32365;SDS011;18837;46.832;16.838;2023-04-03T17:43:06;4.00;;;2.20;;
32365;SDS011;18837;46.832;16.838;2023-04-03T17:45:32;3.27;;;2.03;;
32365;SDS011;18837;46.832;16.838;2023-04-03T17:47:58;2.40;;;2.00;;
32365;SDS011;18837;46.832;16.838;2023-04-03T17:56:37;2.97;;;2.07;;
32365;SDS011;18837;46.832;16.838;2023-04-03T17:59:03;3.00;;;2.10;;
32365;SDS011;18837;46.832;16.838;2023-04-03T18:01:29;3.77;;;2.17;;
32365;SDS011;18837;46.832;16.838;2023-04-03T18:03:57;2.60;;;1.87;;
32365;SDS011;18837;46.832;16.838;2023-04-03T18:06:27;3.97;;;1.97;;
32365;SDS011;18837;46.832;16.838;2023-04-03T18:11:41;2.50;;;1.70;;
32365;SDS011;18837;46.832;16.838;2023-04-03T18:14:08;3.87;;;2.20;;
32365;SDS011;18837;46.832;16.838;2023-04-03T18:16:34;2.97;;;2.20;;
32365;SDS011;18837;46.832;16.838;2023-04-03T18:19:00;2.30;;;2.10;;
32365;SDS011;18837;46.832;16.838;2023-04-03T18:21:26;4.53;;;2.10;;
32365;SDS011;18837;46.832;16.838;2023-04-03T18:30:06;3.50;;;2.20;;
32365;SDS011;18837;46.832;16.838;2023-04-03T18:32:34;2.83;;;1.80;;
32365;SDS011;18837;46.832;16.838;2023-04-03T18:35:02;3.17;;;2.50;;
32365;SDS011;18837;46.832;16.838;2023-04-03T18:37:28;2.37;;;1.70;;
32365;SDS011;18837;46.832;16.838;2023-04-03T18:39:54;4.23;;;1.90;;
32365;SDS011;18837;46.832;16.838;2023-04-03T18:42:21;3.00;;;1.90;;
32365;SDS011;18837;46.832;16.838;2023-04-03T18:45:00;2.50;;;2.03;;
32365;SDS011;18837;46.832;16.838;2023-04-03T18:47:29;2.47;;;2.00;;
32365;SDS011;18837;46.832;16.838;2023-04-03T18:49:56;3.03;;;2.07;;
32365;SDS011;18837;46.832;16.838;2023-04-03T18:52:22;2.57;;;1.90;;
32365;SDS011;18837;46.832;16.838;2023-04-03T18:54:50;4.20;;;2.20;;
32365;SDS011;18837;46.832;16.838;2023-04-03T18:57:16;2.93;;;1.83;;
32365;SDS011;18837;46.832;16.838;2023-04-03T19:05:52;3.00;;;2.20;;
32365;SDS011;18837;46.832;16.838;2023-04-03T19:08:18;2.60;;;2.20;;
32365;SDS011;18837;46.832;16.838;2023-04-03T19:10:44;3.53;;;2.17;;
32365;SDS011;18837;46.832;16.838;2023-04-03T19:13:10;2.83;;;1.87;;
32365;SDS011;18837;46.832;16.838;2023-04-03T19:15:36;3.50;;;1.93;;
32365;SDS011;18837;46.832;16.838;2023-04-03T19:18:20;2.23;;;1.90;;
32365;SDS011;18837;46.832;16.838;2023-04-03T19:20:46;3.80;;;2.20;;
32365;SDS011;18837;46.832;16.838;2023-04-03T19:23:12;2.63;;;1.77;;
32365;SDS011;18837;46.832;16.838;2023-04-03T19:25:38;2.17;;;1.90;;
32365;SDS011;18837;46.832;16.838;2023-04-03T19:28:05;2.17;;;1.83;;
32365;SDS011;18837;46.832;16.838;2023-04-03T19:30:31;3.23;;;2.00;;
32365;SDS011;18837;46.832;16.838;2023-04-03T19:39:15;3.30;;;1.97;;
32365;SDS011;18837;46.832;16.838;2023-04-03T19:41:41;3.57;;;2.00;;
32365;SDS011;18837;46.832;16.838;2023-04-03T19:44:09;3.17;;;1.90;;
32365;SDS011;18837;46.832;16.838;2023-04-03T19:46:34;2.97;;;1.77;;
32365;SDS011;18837;46.832;16.838;2023-04-03T19:49:00;2.70;;;1.90;;
32365;SDS011;18837;46.832;16.838;2023-04-03T19:51:26;3.50;;;1.90;;
32365;SDS011;18837;46.832;16.838;2023-04-03T19:54:07;2.57;;;1.87;;
32365;SDS011;18837;46.832;16.838;2023-04-03T19:56:33;2.77;;;2.07;;
32365;SDS011;18837;46.832;16.838;2023-04-03T19:58:59;3.23;;;1.70;;
32365;SDS011;18837;46.832;16.838;2023-04-03T20:01:24;3.90;;;1.83;;
32365;SDS011;18837;46.832;16.838;2023-04-03T20:03:51;2.63;;;1.73;;
32365;SDS011;18837;46.832;16.838;2023-04-03T20:06:17;3.87;;;1.77;;
32365;SDS011;18837;46.832;16.838;2023-04-03T20:12:12;3.70;;;1.97;;
32365;SDS011;18837;46.832;16.838;2023-04-03T20:14:40;1.77;;;1.57;;
32365;SDS011;18837;46.832;16.838;2023-04-03T20:17:07;2.67;;;1.53;;
32365;SDS011;18837;46.832;16.838;2023-04-03T20:19:33;1.90;;;1.60;;
32365;SDS011;18837;46.832;16.838;2023-04-03T20:22:00;3.03;;;1.80;;
32365;SDS011;18837;46.832;16.838;2023-04-03T20:24:26;3.67;;;2.17;;
32365;SDS011;18837;46.832;16.838;2023-04-03T20:29:40;2.37;;;1.87;;
32365;SDS011;18837;46.832;16.838;2023-04-03T20:32:06;2.67;;;1.70;;
32365;SDS011;18837;46.832;16.838;2023-04-03T20:34:34;3.43;;;2.00;;
32365;SDS011;18837;46.832;16.838;2023-04-03T20:37:00;2.40;;;1.73;;
32365;SDS011;18837;46.832;16.838;2023-04-03T20:39:26;3.07;;;1.50;;
32365;SDS011;18837;46.832;16.838;2023-04-03T20:48:05;2.20;;;1.53;;
32365;SDS011;18837;46.832;16.838;2023-04-03T20:50:31;3.00;;;1.77;;
32365;SDS011;18837;46.832;16.838;2023-04-03T20:52:58;2.80;;;1.70;;
32365;SDS011;18837;46.832;16.838;2023-04-03T20:55:24;3.90;;;2.00;;
32365;SDS011;18837;46.832;16.838;2023-04-03T20:57:51;2.90;;;1.87;;
32365;SDS011;18837;46.832;16.838;2023-04-03T21:00:18;4.80;;;2.20;;
32365;SDS011;18837;46.832;16.838;2023-04-03T21:02:57;2.20;;;1.80;;
32365;SDS011;18837;46.832;16.838;2023-04-03T21:05:23;3.03;;;2.10;;
32365;SDS011;18837;46.832;16.838;2023-04-03T21:23:16;2.87;;;1.63;;
32365;SDS011;18837;46.832;16.838;2023-04-03T21:25:42;2.50;;;1.93;;
32365;SDS011;18837;46.832;16.838;2023-04-03T21:28:08;3.53;;;1.87;;
32365;SDS011;18837;46.832;16.838;2023-04-03T21:30:34;3.23;;;1.83;;
32365;SDS011;18837;46.832;16.838;2023-04-03T21:32:59;2.30;;;1.80;;
32365;SDS011;18837;46.832;16.838;2023-04-03T21:38:22;1.70;;;1.43;;
32365;SDS011;18837;46.832;16.838;2023-04-03T21:40:49;5.27;;;1.70;;
32365;SDS011;18837;46.832;16.838;2023-04-03T21:43:16;2.73;;;1.93;;
32365;SDS011;18837;46.832;16.838;2023-04-03T21:45:42;2.50;;;1.90;;